createdAt,value
2023-11-12T00:02:42.211Z,86.58
2023-11-12T00:05:45.327Z,86.71
2023-11-12T00:08:49.757Z,87.91
2023-11-12T00:11:52.751Z,87.43
2023-11-12T00:14:55.586Z,87.62
2023-11-12T00:17:58.408Z,87.41
2023-11-12T00:21:02.107Z,88.40
2023-11-12T00:24:07.555Z,89.13
2023-11-12T00:27:10.327Z,89.49
2023-11-12T00:30:14.970Z,89.95
2023-11-12T00:33:17.748Z,89.85
2023-11-12T00:36:20.753Z,89.35
2023-11-12T00:39:24.860Z,89.45
2023-11-12T00:42:27.562Z,88.90
2023-11-12T00:45:30.767Z,88.61
2023-11-12T00:48:34.733Z,88.45
2023-11-12T00:51:37.506Z,88.10
2023-11-12T00:54:41.817Z,87.74
2023-11-12T00:57:45.233Z,87.45
2023-11-12T01:00:48.007Z,87.17
2023-11-12T01:03:51.999Z,87.04
2023-11-12T01:06:54.782Z,86.79
2023-11-12T01:10:00.329Z,87.02
2023-11-12T01:13:03.941Z,86.91
2023-11-12T01:16:07.180Z,87.07
2023-11-12T01:19:09.975Z,88.11
2023-11-12T01:22:12.769Z,87.51
2023-11-12T01:25:17.357Z,87.90
2023-11-12T01:28:20.057Z,88.01
2023-11-12T01:31:24.590Z,87.88
2023-11-12T01:34:27.363Z,87.77
2023-11-12T01:37:30.093Z,87.59
2023-11-12T01:40:38.485Z,87.80
2023-11-12T01:43:42.757Z,87.03
2023-11-12T01:46:46.083Z,86.81
2023-11-12T01:49:49.385Z,87.10
2023-11-12T01:52:52.195Z,86.85
2023-11-12T01:55:57.211Z,87.23
2023-11-12T01:59:00.770Z,87.20
2023-11-12T02:02:04.194Z,87.51
2023-11-12T02:05:09.612Z,88.09
2023-11-12T02:08:13.959Z,87.98
2023-11-12T02:11:19.269Z,88.96
2023-11-12T02:14:22.820Z,89.02
2023-11-12T02:17:27.552Z,88.68
2023-11-12T02:20:30.382Z,89.04
2023-11-12T02:23:37.848Z,88.53
2023-11-12T02:26:40.616Z,89.53
2023-11-12T02:29:49.130Z,90.60
2023-11-12T02:32:51.884Z,90.97
2023-11-12T02:35:54.721Z,92.04
2023-11-12T02:38:58.825Z,92.24
2023-11-12T02:42:02.823Z,92.85
2023-11-12T02:45:06.359Z,92.97
2023-11-12T02:48:09.234Z,93.66
2023-11-12T02:51:12.007Z,93.33
2023-11-12T02:54:16.109Z,93.75
2023-11-12T02:57:22.252Z,94.14
2023-11-12T03:00:28.605Z,93.56
2023-11-12T03:03:31.784Z,93.88
2023-11-12T03:06:34.905Z,93.61
2023-11-12T03:09:39.199Z,94.05
2023-11-12T03:12:42.165Z,93.72
2023-11-12T03:15:44.960Z,93.65
2023-11-12T03:18:50.152Z,93.70
2023-11-12T03:21:54.177Z,93.76
2023-11-12T03:24:58.287Z,93.79
2023-11-12T03:28:01.256Z,94.02
2023-11-12T03:31:04.030Z,93.88
2023-11-12T03:34:06.751Z,93.22
2023-11-12T03:37:09.476Z,92.80
2023-11-12T03:40:14.522Z,93.02
2023-11-12T03:43:17.222Z,93.00
2023-11-12T03:46:20.626Z,92.62
2023-11-12T03:49:24.103Z,92.63
2023-11-12T03:52:26.801Z,92.88
2023-11-12T03:55:30.919Z,92.93
2023-11-12T03:58:34.620Z,92.83
2023-11-12T04:01:38.129Z,92.67
2023-11-12T04:04:41.163Z,92.84
2023-11-12T04:07:44.038Z,92.75
2023-11-12T04:10:48.252Z,92.17
2023-11-12T04:13:51.017Z,92.73
2023-11-12T04:16:53.781Z,92.83
2023-11-12T04:19:59.218Z,92.75
2023-11-12T04:23:02.170Z,92.80
2023-11-12T04:26:06.868Z,93.29
2023-11-12T04:29:09.929Z,93.36
2023-11-12T04:32:12.758Z,93.94
2023-11-12T04:35:15.679Z,94.40
2023-11-12T04:38:18.535Z,94.88
2023-11-12T04:41:22.883Z,95.94
2023-11-12T04:44:26.399Z,95.84
2023-11-12T04:47:29.215Z,95.62
2023-11-12T04:50:31.904Z,95.32
2023-11-12T04:53:34.659Z,95.35
2023-11-12T04:56:46.260Z,94.55
2023-11-12T04:59:49.161Z,94.31
2023-11-12T05:02:52.617Z,94.42
2023-11-12T05:05:55.699Z,94.84
2023-11-12T05:08:58.464Z,95.07
2023-11-12T05:12:03.553Z,95.62
2023-11-12T05:15:07.997Z,95.93
2023-11-12T05:18:10.857Z,95.79
2023-11-12T05:21:13.687Z,96.01
2023-11-12T05:24:16.600Z,96.07
2023-11-12T05:27:20.953Z,96.53
2023-11-12T05:30:24.431Z,96.39
2023-11-12T05:33:27.485Z,96.58
2023-11-12T05:36:30.646Z,96.75
2023-11-12T05:39:33.775Z,96.99
2023-11-12T05:42:37.929Z,97.34
2023-11-12T05:45:40.719Z,97.19
2023-11-12T05:48:44.026Z,97.61
2023-11-12T05:51:46.850Z,97.85
2023-11-12T05:54:49.621Z,98.29
2023-11-12T05:57:53.719Z,98.92
2023-11-12T06:00:56.736Z,99.16
2023-11-12T06:04:02.375Z,99.02
2023-11-12T06:07:05.496Z,99.60
2023-11-12T06:10:09.066Z,99.69
2023-11-12T06:13:13.173Z,99.61
2023-11-12T06:16:15.866Z,99.96
2023-11-12T06:19:18.687Z,100.00
2023-11-12T06:22:21.769Z,100.00
2023-11-12T06:25:25.057Z,100.00
2023-11-12T06:28:29.683Z,100.00
2023-11-12T06:31:32.573Z,100.00
2023-11-12T06:34:36.136Z,100.00
2023-11-12T06:37:39.238Z,100.00
2023-11-12T06:40:41.950Z,99.42
2023-11-12T06:43:46.028Z,99.22
2023-11-12T06:46:48.764Z,99.62
2023-11-12T06:49:52.711Z,100.00
2023-11-12T06:52:56.777Z,100.00
2023-11-12T06:55:59.443Z,100.00
2023-11-12T06:59:04.010Z,100.00
2023-11-12T07:02:08.057Z,100.00
2023-11-12T07:05:11.601Z,100.00
2023-11-12T07:08:14.355Z,100.00
2023-11-12T07:11:17.913Z,100.00
2023-11-12T07:14:22.060Z,100.00
2023-11-12T07:17:24.750Z,99.63
2023-11-12T07:20:33.417Z,99.09
2023-11-12T07:23:38.364Z,98.99
2023-11-12T07:26:41.089Z,98.71
2023-11-12T07:29:46.059Z,98.46
2023-11-12T07:32:48.800Z,98.67
2023-11-12T07:35:51.606Z,98.50
2023-11-12T07:38:54.370Z,97.23
2023-11-12T07:41:57.127Z,97.59
2023-11-12T07:45:06.995Z,97.61
2023-11-12T07:48:15.747Z,97.76
2023-11-12T07:51:18.646Z,97.03
2023-11-12T07:54:21.568Z,95.19
2023-11-12T07:57:24.582Z,95.83
2023-11-12T08:00:29.132Z,94.38
2023-11-12T08:03:32.798Z,94.49
2023-11-12T08:06:35.668Z,94.64
2023-11-12T08:09:38.468Z,94.34
2023-11-12T08:12:41.338Z,95.00
2023-11-12T08:15:45.494Z,95.65
2023-11-12T08:18:48.274Z,95.34
2023-11-12T08:21:51.045Z,95.03
2023-11-12T08:24:55.114Z,94.96
2023-11-12T08:27:58.461Z,95.03
2023-11-12T08:31:02.657Z,95.14
2023-11-12T08:34:05.867Z,95.16
2023-11-12T08:37:08.899Z,95.79
2023-11-12T08:40:12.914Z,96.34
2023-11-12T08:43:16.011Z,96.02
2023-11-12T08:46:21.513Z,96.17
2023-11-12T08:49:24.608Z,95.81
2023-11-12T08:52:27.697Z,95.74
2023-11-12T08:55:30.654Z,96.38
2023-11-12T08:58:33.579Z,96.73
2023-11-12T09:01:37.827Z,97.55
2023-11-12T09:04:40.773Z,97.82
2023-11-12T09:07:43.616Z,98.06
2023-11-12T09:10:46.465Z,97.98
2023-11-12T09:13:49.664Z,98.01
2023-11-12T09:16:53.994Z,98.21
2023-11-12T09:19:56.734Z,97.51
2023-11-12T09:22:59.426Z,97.76
2023-11-12T09:26:02.160Z,97.17
2023-11-12T09:29:05.136Z,97.48
2023-11-12T09:32:09.941Z,97.40
2023-11-12T09:35:12.710Z,97.22
2023-11-12T09:38:15.707Z,96.68
2023-11-12T09:41:21.315Z,95.75
2023-11-12T09:44:28.848Z,95.75
2023-11-12T09:47:40.061Z,95.77
2023-11-12T09:50:45.803Z,95.10
2023-11-12T09:53:51.527Z,93.58
2023-11-12T09:57:06.078Z,93.37
2023-11-12T10:00:14.114Z,91.85
2023-11-12T10:03:18.302Z,92.16
2023-11-12T10:06:23.417Z,91.08
2023-11-12T10:09:30.248Z,90.14
2023-11-12T10:12:33.034Z,89.59
2023-11-12T10:15:36.159Z,87.96
2023-11-12T10:18:40.338Z,86.90
2023-11-12T10:21:56.570Z,87.36
2023-11-12T10:25:00.088Z,86.52
2023-11-12T10:28:05.281Z,84.85
2023-11-12T10:31:10.656Z,84.00
2023-11-12T10:34:17.970Z,83.71
2023-11-12T10:37:20.931Z,84.19
2023-11-12T10:40:23.695Z,81.99
2023-11-12T10:43:28.750Z,80.91
2023-11-12T10:46:31.748Z,80.53
2023-11-12T10:49:40.676Z,81.17
2023-11-12T10:52:44.404Z,79.55
2023-11-12T10:55:48.660Z,78.04
2023-11-12T10:58:54.314Z,77.98
2023-11-12T11:02:00.118Z,77.11
2023-11-12T11:05:06.611Z,77.72
2023-11-12T11:08:09.395Z,77.74
2023-11-12T11:11:12.860Z,78.57
2023-11-12T11:14:25.967Z,78.87
2023-11-12T11:17:46.405Z,78.42
2023-11-12T11:21:14.561Z,78.37
2023-11-12T11:24:45.215Z,77.61
2023-11-12T11:27:48.461Z,77.49
2023-11-12T11:31:18.565Z,77.11
2023-11-12T11:34:22.860Z,77.71
2023-11-12T11:38:05.281Z,79.17
2023-11-12T11:41:09.637Z,78.58
2023-11-12T11:44:43.226Z,79.13
2023-11-12T11:48:05.648Z,79.60
2023-11-12T11:51:45.747Z,79.07
2023-11-12T11:54:55.709Z,79.95
2023-11-12T11:58:06.776Z,80.77
2023-11-12T12:01:10.041Z,81.34
2023-11-12T12:04:14.424Z,81.79
2023-11-12T12:07:22.045Z,81.79
2023-11-12T12:10:29.898Z,81.25
2023-11-12T12:13:34.364Z,81.42
2023-11-12T12:16:37.890Z,81.22
2023-11-12T12:19:40.872Z,80.69
2023-11-12T12:22:45.405Z,80.94
2023-11-12T12:25:53.442Z,81.19
2023-11-12T12:28:56.213Z,79.06
2023-11-12T12:31:59.874Z,78.54
2023-11-12T12:35:03.954Z,78.73
2023-11-12T12:38:08.330Z,77.05
2023-11-12T12:41:12.608Z,77.62
2023-11-12T12:44:23.988Z,76.89
2023-11-12T12:47:31.652Z,76.04
2023-11-12T12:50:34.781Z,75.31
2023-11-12T12:53:38.107Z,74.59
2023-11-12T12:56:43.478Z,74.45
2023-11-12T12:59:46.222Z,74.73
2023-11-12T13:02:49.756Z,72.90
2023-11-12T13:05:52.874Z,73.45
2023-11-12T13:08:57.854Z,72.62
2023-11-12T13:12:03.858Z,73.58
2023-11-12T13:15:10.086Z,74.87
2023-11-12T13:18:13.164Z,76.13
2023-11-12T13:21:17.330Z,76.50
2023-11-12T13:24:21.004Z,77.24
2023-11-12T13:27:25.325Z,77.29
2023-11-12T13:30:28.047Z,77.61
2023-11-12T13:33:31.106Z,78.52
2023-11-12T13:36:33.955Z,77.90
2023-11-12T13:39:37.656Z,77.59
2023-11-12T13:42:43.232Z,78.01
2023-11-12T13:45:46.164Z,77.98
2023-11-12T13:48:49.589Z,78.73
2023-11-12T13:51:56.730Z,79.16
2023-11-12T13:55:00.025Z,79.44
2023-11-12T13:58:06.457Z,78.79
2023-11-12T14:01:09.283Z,77.90
2023-11-12T14:04:15.173Z,78.46
2023-11-12T14:07:17.948Z,79.22
2023-11-12T14:10:22.981Z,78.79
2023-11-12T14:13:27.154Z,78.45
2023-11-12T14:16:30.061Z,79.70
2023-11-12T14:19:35.276Z,79.70
2023-11-12T14:22:41.366Z,79.08
2023-11-12T14:25:44.611Z,79.04
2023-11-12T14:28:50.464Z,79.49
2023-11-12T14:31:53.473Z,79.87
2023-11-12T14:34:56.252Z,79.61
2023-11-12T14:38:00.074Z,79.73
2023-11-12T14:41:03.986Z,79.32
2023-11-12T14:44:08.583Z,79.07
2023-11-12T14:47:11.338Z,79.15
2023-11-12T14:50:14.076Z,78.83
2023-11-12T14:53:17.058Z,78.20
2023-11-12T14:56:19.804Z,78.89
2023-11-12T14:59:23.852Z,79.00
2023-11-12T15:02:26.768Z,78.83
2023-11-12T15:05:30.020Z,78.41
2023-11-12T15:08:33.393Z,78.35
2023-11-12T15:11:36.333Z,77.74
2023-11-12T15:14:40.729Z,78.24
2023-11-12T15:17:43.566Z,78.12
2023-11-12T15:20:46.707Z,78.64
2023-11-12T15:23:49.435Z,79.04
2023-11-12T15:26:52.166Z,79.26
2023-11-12T15:29:56.755Z,79.16
2023-11-12T15:32:59.658Z,78.93
2023-11-12T15:36:02.407Z,78.84
2023-11-12T15:39:07.508Z,79.11
2023-11-12T15:42:10.240Z,79.04
2023-11-12T15:45:17.227Z,78.64
2023-11-12T15:48:20.006Z,79.36
2023-11-12T15:51:23.493Z,79.54
2023-11-12T15:54:27.678Z,79.56
2023-11-12T15:57:30.437Z,78.79
2023-11-12T16:00:35.038Z,78.85
2023-11-12T16:03:38.228Z,78.82
2023-11-12T16:06:41.189Z,78.45
2023-11-12T16:09:45.582Z,77.72
2023-11-12T16:12:48.418Z,77.79
2023-11-12T16:15:52.832Z,78.29
2023-11-12T16:18:55.628Z,77.98
2023-11-12T16:21:58.639Z,78.24
2023-11-12T16:25:02.319Z,78.25
2023-11-12T16:28:06.407Z,78.60
2023-11-12T16:31:11.438Z,78.63
2023-11-12T16:34:14.691Z,79.20
2023-11-12T16:37:17.672Z,78.84
2023-11-12T16:40:20.961Z,79.54
2023-11-12T16:43:24.202Z,79.83
2023-11-12T16:46:32.822Z,79.39
2023-11-12T16:49:36.674Z,79.23
2023-11-12T16:52:39.710Z,79.41
2023-11-12T16:55:42.491Z,79.50
2023-11-12T16:58:45.777Z,79.44
2023-11-12T17:01:50.705Z,79.71
2023-11-12T17:04:53.545Z,80.24
2023-11-12T17:07:56.306Z,80.04
2023-11-12T17:10:59.031Z,80.62
2023-11-12T17:14:04.572Z,80.43
2023-11-12T17:17:08.679Z,80.53
2023-11-12T17:20:14.124Z,80.63
2023-11-12T17:23:16.849Z,80.57
2023-11-12T17:26:19.629Z,80.62
2023-11-12T17:29:22.472Z,80.36
2023-11-12T17:32:27.677Z,80.54
2023-11-12T17:35:30.893Z,80.61
2023-11-12T17:38:33.640Z,80.43
2023-11-12T17:41:36.706Z,80.54
2023-11-12T17:44:40.378Z,80.48
2023-11-12T17:47:44.700Z,80.98
2023-11-12T17:50:48.277Z,81.58
2023-11-12T17:53:51.373Z,81.75
2023-11-12T17:56:55.051Z,82.19
2023-11-12T17:59:57.940Z,82.45
2023-11-12T18:03:02.936Z,82.92
2023-11-12T18:06:07.115Z,82.89
2023-11-12T18:09:09.899Z,83.30
2023-11-12T18:12:12.592Z,83.32
2023-11-12T18:15:15.612Z,83.43
2023-11-12T18:18:19.952Z,83.51
2023-11-12T18:21:22.826Z,83.51
2023-11-12T18:24:25.702Z,83.39
2023-11-12T18:27:29.452Z,83.60
2023-11-12T18:30:32.393Z,83.65
2023-11-12T18:33:37.211Z,84.25
2023-11-12T18:36:40.793Z,84.08
2023-11-12T18:39:44.234Z,84.08
2023-11-12T18:42:48.014Z,84.19
2023-11-12T18:45:54.356Z,84.31
2023-11-12T18:48:58.611Z,83.84
2023-11-12T18:52:02.439Z,84.01
2023-11-12T18:55:05.851Z,84.14
2023-11-12T18:58:08.615Z,83.89
2023-11-12T19:01:13.200Z,84.17
2023-11-12T19:04:17.765Z,83.70
2023-11-12T19:07:20.566Z,84.05
2023-11-12T19:10:24.290Z,84.16
2023-11-12T19:13:27.016Z,84.16
2023-11-12T19:16:30.028Z,84.18
2023-11-12T19:19:37.355Z,84.33
2023-11-12T19:22:40.243Z,84.04
2023-11-12T19:25:44.292Z,84.09
2023-11-12T19:28:47.890Z,83.81
2023-11-12T19:31:51.116Z,82.41
2023-11-12T19:34:55.286Z,82.30
2023-11-12T19:37:58.106Z,82.97
2023-11-12T19:41:01.169Z,82.73
2023-11-12T19:44:03.931Z,82.92
2023-11-12T19:47:07.494Z,82.94
2023-11-12T19:50:12.683Z,83.04
2023-11-12T19:53:15.480Z,83.04
2023-11-12T19:56:18.392Z,83.27
2023-11-12T19:59:21.312Z,83.27
2023-11-12T20:02:24.565Z,83.25
2023-11-12T20:05:28.718Z,82.67
2023-11-12T20:08:31.424Z,82.92
2023-11-12T20:11:34.148Z,82.59
2023-11-12T20:14:37.931Z,82.79
2023-11-12T20:17:41.406Z,83.36
2023-11-12T20:20:45.805Z,83.27
2023-11-12T20:23:54.307Z,83.55
2023-11-12T20:26:58.018Z,83.72
2023-11-12T20:30:00.732Z,83.65
2023-11-12T20:33:04.069Z,83.28
2023-11-12T20:36:11.466Z,83.30
2023-11-12T20:39:16.959Z,83.39
2023-11-12T20:42:20.653Z,83.14
2023-11-12T20:45:23.386Z,83.14
2023-11-12T20:48:26.432Z,82.79
2023-11-12T20:51:30.505Z,82.93
2023-11-12T20:54:34.379Z,83.14
2023-11-12T20:57:37.117Z,83.32
2023-11-12T21:00:40.304Z,83.42
2023-11-12T21:03:43.723Z,83.17
2023-11-12T21:06:48.207Z,83.53
2023-11-12T21:09:52.536Z,83.19
2023-11-12T21:12:55.421Z,83.15
2023-11-12T21:15:58.532Z,83.20
2023-11-12T21:19:03.359Z,83.34
2023-11-12T21:22:07.679Z,83.04
2023-11-12T21:25:11.055Z,83.31
2023-11-12T21:28:13.947Z,83.22
2023-11-12T21:31:17.610Z,83.40
2023-11-12T21:34:22.014Z,83.47
2023-11-12T21:37:26.944Z,83.27
2023-11-12T21:40:31.659Z,83.25
2023-11-12T21:43:35.730Z,83.22
2023-11-12T21:46:38.708Z,82.49
2023-11-12T21:49:41.594Z,82.77
2023-11-12T21:52:45.661Z,82.84
2023-11-12T21:55:48.490Z,82.42
2023-11-12T21:58:51.188Z,82.83
2023-11-12T22:01:54.384Z,83.46
2023-11-12T22:04:57.096Z,83.44
2023-11-12T22:08:02.183Z,83.57
2023-11-12T22:11:06.344Z,83.35
2023-11-12T22:14:09.433Z,83.04
2023-11-12T22:17:12.738Z,82.25
2023-11-12T22:20:15.917Z,82.97
2023-11-12T22:23:20.315Z,83.58
2023-11-12T22:26:23.837Z,83.99
2023-11-12T22:29:26.615Z,83.91
2023-11-12T22:32:31.944Z,83.98
2023-11-12T22:35:35.323Z,84.06
2023-11-12T22:38:39.612Z,83.91
2023-11-12T22:48:41.294Z,85.08
2023-11-12T22:51:44.740Z,85.06
2023-11-12T22:54:49.737Z,85.71
2023-11-12T22:57:53.713Z,86.10
2023-11-12T23:01:00.930Z,86.69
2023-11-12T23:04:06.574Z,87.10
2023-11-12T23:07:11.131Z,87.40
2023-11-12T23:10:15.618Z,86.78
2023-11-12T23:13:19.933Z,87.02
2023-11-12T23:16:24.536Z,86.79
2023-11-12T23:19:27.722Z,86.75
2023-11-12T23:22:30.504Z,87.09
2023-11-12T23:25:34.958Z,86.99
2023-11-12T23:28:38.636Z,86.77
2023-11-12T23:31:41.466Z,86.56
2023-11-12T23:34:44.923Z,86.87
2023-11-12T23:37:47.789Z,86.88
2023-11-12T23:40:51.945Z,86.75
2023-11-12T23:43:54.689Z,86.93
2023-11-12T23:46:57.499Z,87.12
2023-11-12T23:50:00.332Z,87.12
2023-11-12T23:53:04.684Z,86.30
2023-11-12T23:56:09.047Z,85.96
2023-11-12T23:59:13.973Z,86.86
